createdAt,value
2023-01-18T00:00:23.626Z,99.99
2023-01-18T00:01:23.287Z,99.99
2023-01-18T00:02:23.263Z,99.99
2023-01-18T00:03:23.300Z,99.99
2023-01-18T00:04:23.233Z,99.99
2023-01-18T00:05:23.219Z,99.99
2023-01-18T00:06:23.206Z,99.99
2023-01-18T00:07:23.213Z,99.99
2023-01-18T00:08:23.218Z,99.99
2023-01-18T00:09:23.230Z,99.99
2023-01-18T00:10:23.140Z,99.99
2023-01-18T00:11:23.176Z,99.99
2023-01-18T00:12:23.146Z,99.99
2023-01-18T00:13:23.132Z,99.99
2023-01-18T00:14:23.123Z,99.99
2023-01-18T00:15:23.137Z,99.99
2023-01-18T00:16:23.146Z,99.99
2023-01-18T00:17:23.106Z,99.99
2023-01-18T00:18:23.069Z,99.99
2023-01-18T00:19:23.096Z,99.99
2023-01-18T00:20:23.055Z,99.99
2023-01-18T00:21:23.059Z,99.99
2023-01-18T00:22:23.034Z,99.99
2023-01-18T00:23:23.018Z,99.99
2023-01-18T00:24:23.016Z,99.99
2023-01-18T00:25:23.023Z,99.99
2023-01-18T00:26:23.000Z,99.99
2023-01-18T00:27:22.990Z,99.99
2023-01-18T00:28:22.978Z,99.99
2023-01-18T00:29:22.991Z,99.99
2023-01-18T00:30:22.956Z,99.99
2023-01-18T00:31:23.097Z,99.99
2023-01-18T00:32:22.942Z,99.99
2023-01-18T00:33:22.954Z,99.99
2023-01-18T00:34:22.925Z,99.99
2023-01-18T00:35:22.916Z,99.99
2023-01-18T00:36:22.893Z,99.99
2023-01-18T00:37:22.892Z,99.99
2023-01-18T00:38:22.876Z,99.99
2023-01-18T00:39:22.883Z,99.99
2023-01-18T00:40:22.898Z,99.99
2023-01-18T00:41:22.858Z,99.99
2023-01-18T00:42:22.840Z,99.99
2023-01-18T00:43:22.825Z,99.99
2023-01-18T00:44:22.809Z,99.99
2023-01-18T00:45:22.842Z,99.99
2023-01-18T00:46:22.813Z,99.99
2023-01-18T00:47:22.785Z,99.99
2023-01-18T00:48:22.762Z,99.99
2023-01-18T00:49:22.770Z,99.99
2023-01-18T00:50:22.744Z,99.99
2023-01-18T00:51:22.741Z,99.99
2023-01-18T00:52:22.728Z,99.99
2023-01-18T00:53:22.718Z,99.99
2023-01-18T00:54:22.682Z,99.99
2023-01-18T00:55:22.678Z,99.99
2023-01-18T00:56:22.858Z,99.99
2023-01-18T00:57:22.665Z,99.99
2023-01-18T00:58:22.660Z,99.99
2023-01-18T00:59:22.668Z,99.99
2023-01-18T01:00:22.634Z,99.99
2023-01-18T01:01:22.780Z,99.99
2023-01-18T01:02:22.879Z,99.99
2023-01-18T01:03:22.622Z,99.99
2023-01-18T01:04:22.599Z,99.99
2023-01-18T01:05:22.592Z,99.99
2023-01-18T01:06:22.581Z,99.99
2023-01-18T01:07:22.558Z,99.99
2023-01-18T01:08:22.557Z,99.99
2023-01-18T01:09:22.543Z,99.99
2023-01-18T01:10:22.548Z,99.99
2023-01-18T01:11:22.532Z,99.99
2023-01-18T01:12:22.507Z,99.99
2023-01-18T01:13:22.532Z,99.99
2023-01-18T01:14:22.483Z,99.99
2023-01-18T01:15:22.494Z,99.99
2023-01-18T01:16:22.499Z,99.99
2023-01-18T01:17:22.469Z,99.99
2023-01-18T01:18:22.444Z,99.99
2023-01-18T01:19:22.434Z,99.99
2023-01-18T01:20:22.444Z,99.99
2023-01-18T01:21:22.419Z,99.99
2023-01-18T01:22:22.417Z,99.99
2023-01-18T01:23:22.390Z,99.99
2023-01-18T01:24:22.389Z,99.99
2023-01-18T01:25:22.365Z,99.99
2023-01-18T01:26:22.367Z,99.99
2023-01-18T01:27:22.346Z,99.99
2023-01-18T01:28:22.360Z,99.99
2023-01-18T01:29:22.332Z,99.99
2023-01-18T01:30:22.340Z,99.99
2023-01-18T01:31:22.314Z,99.99
2023-01-18T01:32:22.310Z,99.99
2023-01-18T01:33:22.327Z,99.99
2023-01-18T01:34:22.309Z,99.99
2023-01-18T01:35:22.266Z,99.99
2023-01-18T01:36:22.262Z,99.99
2023-01-18T01:37:22.243Z,99.99
2023-01-18T01:38:22.259Z,99.99
2023-01-18T01:39:22.231Z,99.99
2023-01-18T01:40:22.233Z,99.99
2023-01-18T01:41:22.208Z,99.99
2023-01-18T01:42:22.219Z,99.99
2023-01-18T01:43:22.194Z,99.99
2023-01-18T01:44:22.170Z,99.99
2023-01-18T01:45:22.154Z,99.99
2023-01-18T01:46:22.202Z,99.99
2023-01-18T01:47:22.161Z,99.99
2023-01-18T01:48:22.164Z,99.99
2023-01-18T01:49:22.138Z,99.99
2023-01-18T01:50:22.137Z,99.99
2023-01-18T01:51:22.124Z,99.99
2023-01-18T01:52:22.145Z,99.99
2023-01-18T01:53:22.068Z,99.99
2023-01-18T01:54:22.121Z,99.99
2023-01-18T01:55:22.070Z,99.99
2023-01-18T01:56:22.078Z,99.99
2023-01-18T01:57:22.047Z,99.99
2023-01-18T01:58:22.061Z,99.99
2023-01-18T01:59:22.022Z,99.99
2023-01-18T02:00:22.059Z,99.99
2023-01-18T02:01:22.150Z,99.99
2023-01-18T02:02:22.048Z,99.99
2023-01-18T02:03:21.974Z,99.99
2023-01-18T02:04:22.207Z,99.99
2023-01-18T02:05:21.948Z,99.99
2023-01-18T02:06:21.957Z,99.99
2023-01-18T02:07:21.963Z,99.99
2023-01-18T02:08:21.938Z,99.99
2023-01-18T02:09:21.904Z,99.99
2023-01-18T02:10:21.937Z,99.99
2023-01-18T02:11:21.902Z,99.99
2023-01-18T02:12:21.898Z,99.99
2023-01-18T02:13:21.872Z,99.99
2023-01-18T02:14:21.873Z,99.99
2023-01-18T02:15:21.860Z,99.99
2023-01-18T02:16:21.892Z,99.99
2023-01-18T02:17:21.863Z,99.99
2023-01-18T02:18:21.839Z,99.99
2023-01-18T02:19:21.814Z,99.99
2023-01-18T02:20:21.816Z,99.99
2023-01-18T02:21:21.804Z,99.99
2023-01-18T02:22:21.805Z,99.99
2023-01-18T02:23:21.783Z,99.99
2023-01-18T02:24:21.778Z,99.99
2023-01-18T02:25:21.752Z,99.99
2023-01-18T02:26:21.737Z,99.99
2023-01-18T02:27:21.722Z,99.99
2023-01-18T02:28:21.721Z,99.99
2023-01-18T02:29:21.702Z,99.99
2023-01-18T02:30:21.713Z,99.99
2023-01-18T02:31:21.687Z,99.99
2023-01-18T02:32:21.696Z,99.99
2023-01-18T02:33:21.659Z,99.99
2023-01-18T02:34:21.717Z,99.99
2023-01-18T02:35:21.691Z,99.99
2023-01-18T02:36:21.655Z,99.99
2023-01-18T02:37:21.727Z,99.99
2023-01-18T02:38:21.631Z,99.99
2023-01-18T02:39:21.622Z,99.99
2023-01-18T02:40:21.595Z,99.99
2023-01-18T02:41:21.584Z,99.99
2023-01-18T02:42:21.677Z,99.99
2023-01-18T02:43:21.575Z,99.99
2023-01-18T02:44:21.557Z,99.99
2023-01-18T02:45:21.562Z,99.99
2023-01-18T02:46:21.616Z,99.99
2023-01-18T02:47:21.607Z,99.99
2023-01-18T02:48:21.534Z,99.99
2023-01-18T02:49:21.523Z,99.99
2023-01-18T02:50:21.536Z,99.99
2023-01-18T02:51:21.474Z,99.99
2023-01-18T02:52:21.468Z,99.99
2023-01-18T02:53:21.474Z,99.99
2023-01-18T02:54:21.437Z,99.99
2023-01-18T02:55:21.444Z,99.99
2023-01-18T02:56:21.447Z,99.99
2023-01-18T02:57:21.426Z,99.99
2023-01-18T02:58:21.419Z,99.99
2023-01-18T02:59:21.397Z,99.99
2023-01-18T03:00:21.386Z,99.99
2023-01-18T03:01:21.445Z,99.99
2023-01-18T03:02:21.402Z,99.99
2023-01-18T03:03:21.368Z,99.99
2023-01-18T03:04:21.357Z,99.99
2023-01-18T03:05:21.341Z,99.99
2023-01-18T03:06:21.538Z,99.99
2023-01-18T03:07:21.332Z,99.99
2023-01-18T03:08:21.343Z,99.99
2023-01-18T03:09:21.337Z,99.99
2023-01-18T03:10:21.303Z,99.99
2023-01-18T03:11:21.272Z,99.99
2023-01-18T03:12:21.286Z,99.99
2023-01-18T03:13:21.294Z,99.99
2023-01-18T03:14:21.253Z,99.99
2023-01-18T03:15:21.219Z,99.99
2023-01-18T03:16:21.266Z,99.99
2023-01-18T03:17:21.221Z,99.99
2023-01-18T03:18:21.219Z,99.99
2023-01-18T03:19:21.197Z,99.99
2023-01-18T03:20:21.188Z,99.99
2023-01-18T03:21:21.156Z,99.99
2023-01-18T03:22:21.163Z,99.99
2023-01-18T03:23:21.185Z,99.99
2023-01-18T03:24:21.141Z,99.99
2023-01-18T03:25:21.122Z,99.99
2023-01-18T03:26:21.123Z,99.99
2023-01-18T03:27:21.122Z,99.99
2023-01-18T03:28:21.118Z,99.99
2023-01-18T03:29:21.082Z,99.99
2023-01-18T03:30:21.103Z,99.99
2023-01-18T03:31:21.128Z,99.99
2023-01-18T03:32:21.075Z,99.99
2023-01-18T03:33:21.056Z,99.99
2023-01-18T03:34:21.061Z,99.99
2023-01-18T03:35:21.037Z,99.99
2023-01-18T03:36:21.025Z,99.99
2023-01-18T03:37:21.092Z,99.99
2023-01-18T03:38:21.009Z,99.99
2023-01-18T03:39:20.993Z,99.99
2023-01-18T03:40:20.982Z,99.99
2023-01-18T03:41:20.964Z,99.99
2023-01-18T03:42:20.978Z,99.99
2023-01-18T03:43:20.940Z,99.99
2023-01-18T03:44:20.977Z,99.99
2023-01-18T03:45:20.916Z,99.99
2023-01-18T03:46:20.958Z,99.99
2023-01-18T03:47:20.923Z,99.99
2023-01-18T03:48:20.918Z,99.99
2023-01-18T03:49:20.878Z,99.99
2023-01-18T03:50:20.875Z,99.99
2023-01-18T03:51:20.848Z,99.99
2023-01-18T03:52:20.844Z,99.99
2023-01-18T03:53:20.823Z,99.99
2023-01-18T03:54:20.852Z,99.99
2023-01-18T03:55:20.806Z,99.99
2023-01-18T03:56:28.366Z,99.99
2023-01-18T03:57:20.807Z,99.99
2023-01-18T03:58:22.614Z,99.99
2023-01-18T03:59:20.777Z,99.99
2023-01-18T04:00:20.803Z,99.99
2023-01-18T04:01:20.898Z,99.99
2023-01-18T04:02:20.828Z,99.99
2023-01-18T04:03:20.763Z,99.99
2023-01-18T04:04:20.762Z,99.99
2023-01-18T04:05:20.727Z,99.99
2023-01-18T04:06:20.713Z,99.99
2023-01-18T04:07:20.704Z,99.99
2023-01-18T04:08:20.814Z,99.99
2023-01-18T04:09:20.673Z,99.99
2023-01-18T04:10:20.685Z,99.99
2023-01-18T04:11:20.663Z,99.99
2023-01-18T04:12:20.655Z,99.99
2023-01-18T04:13:20.630Z,99.99
2023-01-18T04:14:20.659Z,99.99
2023-01-18T04:15:20.628Z,99.99
2023-01-18T04:16:20.641Z,99.99
2023-01-18T04:17:20.617Z,99.99
2023-01-18T04:18:20.622Z,99.99
2023-01-18T04:19:20.596Z,99.99
2023-01-18T04:20:20.582Z,99.99
2023-01-18T04:21:20.551Z,99.99
2023-01-18T04:22:20.563Z,99.99
2023-01-18T04:23:20.541Z,99.99
2023-01-18T04:24:20.528Z,99.99
2023-01-18T04:25:20.518Z,99.99
2023-01-18T04:26:20.558Z,99.99
2023-01-18T04:27:20.997Z,99.99
2023-01-18T04:28:20.515Z,99.99
2023-01-18T04:29:20.473Z,99.99
2023-01-18T04:30:20.484Z,99.99
2023-01-18T04:31:20.490Z,99.99
2023-01-18T04:32:20.472Z,99.99
2023-01-18T04:33:20.424Z,99.99
2023-01-18T04:34:20.431Z,99.99
2023-01-18T04:35:20.430Z,99.99
2023-01-18T04:36:20.405Z,99.99
2023-01-18T04:37:20.404Z,99.99
2023-01-18T04:38:20.415Z,99.99
2023-01-18T04:39:20.444Z,99.99
2023-01-18T04:40:20.378Z,99.99
2023-01-18T04:41:20.331Z,99.99
2023-01-18T04:42:20.339Z,99.99
2023-01-18T04:43:20.340Z,99.99
2023-01-18T04:44:20.337Z,99.99
2023-01-18T04:45:20.317Z,99.99
2023-01-18T04:46:20.329Z,99.99
2023-01-18T04:47:20.278Z,99.99
2023-01-18T04:48:20.326Z,99.99
2023-01-18T04:49:20.328Z,99.99
2023-01-18T04:50:20.283Z,99.99
2023-01-18T04:51:20.254Z,99.99
2023-01-18T04:52:20.268Z,99.99
2023-01-18T04:53:20.229Z,99.99
2023-01-18T04:54:20.236Z,99.99
2023-01-18T04:55:20.211Z,99.99
2023-01-18T04:56:20.203Z,99.99
2023-01-18T04:57:20.208Z,99.99
2023-01-18T04:58:20.202Z,99.99
2023-01-18T04:59:20.190Z,99.99
2023-01-18T05:00:20.182Z,99.99
2023-01-18T05:01:20.188Z,99.99
2023-01-18T05:02:20.187Z,99.99
2023-01-18T05:03:20.129Z,99.99
2023-01-18T05:04:20.134Z,99.99
2023-01-18T05:05:20.121Z,99.99
2023-01-18T05:06:20.100Z,99.99
2023-01-18T05:07:20.103Z,99.99
2023-01-18T05:08:20.087Z,99.99
2023-01-18T05:09:20.053Z,99.99
2023-01-18T05:10:20.189Z,99.99
2023-01-18T05:11:20.051Z,99.99
2023-01-18T05:12:20.047Z,99.99
2023-01-18T05:13:20.017Z,99.99
2023-01-18T05:14:20.028Z,99.99
2023-01-18T05:15:20.012Z,99.99
2023-01-18T05:16:20.086Z,99.99
2023-01-18T05:17:20.636Z,99.99
2023-01-18T05:18:19.995Z,99.99
2023-01-18T05:19:20.190Z,99.99
2023-01-18T05:20:19.959Z,99.99
2023-01-18T05:21:19.951Z,99.99
2023-01-18T05:22:19.948Z,99.99
2023-01-18T05:23:19.921Z,99.99
2023-01-18T05:24:19.926Z,99.99
2023-01-18T05:25:19.917Z,99.99
2023-01-18T05:26:19.918Z,99.99
2023-01-18T05:27:20.859Z,99.99
2023-01-18T05:28:19.890Z,99.99
2023-01-18T05:29:19.879Z,99.99
2023-01-18T05:30:19.872Z,99.99
2023-01-18T05:31:19.871Z,99.99
2023-01-18T05:32:19.842Z,99.99
2023-01-18T05:33:19.853Z,99.99
2023-01-18T05:34:19.831Z,99.99
2023-01-18T05:35:19.839Z,99.99
2023-01-18T05:36:19.801Z,99.99
2023-01-18T05:37:19.827Z,99.99
2023-01-18T05:38:19.812Z,99.99
2023-01-18T05:39:19.793Z,99.99
2023-01-18T05:40:19.773Z,99.99
2023-01-18T05:41:19.859Z,99.99
2023-01-18T05:42:19.754Z,99.99
2023-01-18T05:43:19.743Z,99.99
2023-01-18T05:44:19.739Z,99.99
2023-01-18T05:45:19.767Z,99.99
2023-01-18T05:46:19.671Z,99.99
2023-01-18T05:47:19.687Z,99.99
2023-01-18T05:48:19.668Z,99.99
2023-01-18T05:49:19.673Z,99.99
2023-01-18T05:50:19.643Z,99.99
2023-01-18T05:51:19.651Z,99.99
2023-01-18T05:52:19.623Z,99.99
2023-01-18T05:53:19.647Z,99.99
2023-01-18T05:54:19.623Z,99.99
2023-01-18T05:55:19.638Z,99.99
2023-01-18T05:56:19.571Z,99.99
2023-01-18T05:57:19.607Z,99.99
2023-01-18T05:58:19.554Z,99.99
2023-01-18T05:59:19.555Z,99.99
2023-01-18T06:00:19.594Z,99.99
2023-01-18T06:01:19.593Z,99.99
2023-01-18T06:02:19.518Z,99.99
2023-01-18T06:03:19.525Z,99.99
2023-01-18T06:04:19.530Z,99.99
2023-01-18T06:05:19.504Z,99.99
2023-01-18T06:06:19.515Z,99.99
2023-01-18T06:07:19.493Z,99.99
2023-01-18T06:08:19.495Z,99.99
2023-01-18T06:09:19.471Z,99.99
2023-01-18T06:10:19.444Z,99.99
2023-01-18T06:11:19.432Z,99.99
2023-01-18T06:12:19.683Z,99.99
2023-01-18T06:13:19.426Z,99.99
2023-01-18T06:14:19.398Z,99.99
2023-01-18T06:15:19.409Z,99.99
2023-01-18T06:16:19.407Z,99.99
2023-01-18T06:17:19.392Z,99.99
2023-01-18T06:18:19.340Z,99.99
2023-01-18T06:19:19.349Z,99.99
2023-01-18T06:20:26.374Z,99.99
2023-01-18T06:21:21.156Z,99.99
2023-01-18T06:22:22.037Z,99.99
2023-01-18T06:23:19.333Z,99.99
2023-01-18T06:24:19.290Z,99.99
2023-01-18T06:25:19.306Z,99.99
2023-01-18T06:26:19.276Z,99.99
2023-01-18T06:27:19.429Z,99.99
2023-01-18T06:28:19.260Z,99.99
2023-01-18T06:29:19.263Z,99.99
2023-01-18T06:30:19.246Z,99.99
2023-01-18T06:31:19.254Z,99.99
2023-01-18T06:32:19.214Z,99.99
2023-01-18T06:33:19.239Z,99.99
2023-01-18T06:34:19.246Z,99.99
2023-01-18T06:35:19.213Z,99.99
2023-01-18T06:36:19.183Z,99.99
2023-01-18T06:37:19.187Z,99.99
2023-01-18T06:38:19.159Z,99.99
2023-01-18T06:39:19.162Z,99.99
2023-01-18T06:40:19.152Z,99.99
2023-01-18T06:41:19.135Z,99.99
2023-01-18T06:42:19.122Z,99.99
2023-01-18T06:43:19.166Z,99.99
2023-01-18T06:44:19.084Z,99.99
2023-01-18T06:45:19.097Z,99.99
2023-01-18T06:46:19.122Z,99.99
2023-01-18T06:47:19.062Z,99.99
2023-01-18T06:48:19.052Z,99.99
2023-01-18T06:49:19.074Z,99.99
2023-01-18T06:50:19.041Z,99.99
2023-01-18T06:51:19.035Z,99.99
2023-01-18T06:52:19.054Z,99.99
2023-01-18T06:53:19.015Z,99.99
2023-01-18T06:54:19.043Z,99.99
2023-01-18T06:55:19.010Z,99.99
2023-01-18T06:56:18.961Z,99.99
2023-01-18T06:57:19.001Z,99.99
2023-01-18T06:58:18.950Z,99.99
2023-01-18T06:59:18.944Z,99.99
2023-01-18T07:00:18.993Z,99.99
2023-01-18T07:01:19.006Z,99.99
2023-01-18T07:02:18.904Z,99.99
2023-01-18T07:03:18.911Z,99.99
2023-01-18T07:04:18.922Z,99.99
2023-01-18T07:05:18.897Z,99.99
2023-01-18T07:06:19.149Z,99.99
2023-01-18T07:07:18.869Z,99.99
2023-01-18T07:08:18.865Z,99.99
2023-01-18T07:09:18.850Z,99.99
2023-01-18T07:10:18.822Z,99.99
2023-01-18T07:11:18.827Z,99.99
2023-01-18T07:12:18.807Z,99.99
2023-01-18T07:13:18.799Z,99.99
2023-01-18T07:14:18.991Z,99.99
2023-01-18T07:15:22.760Z,99.99
2023-01-18T07:16:18.832Z,99.99
2023-01-18T07:17:18.794Z,99.99
2023-01-18T07:18:18.750Z,99.99
2023-01-18T07:19:18.747Z,99.99
2023-01-18T07:20:18.728Z,99.99
2023-01-18T07:21:18.717Z,99.99
2023-01-18T07:22:18.727Z,99.99
2023-01-18T07:23:18.710Z,99.99
2023-01-18T07:24:18.701Z,99.99
2023-01-18T07:25:18.716Z,99.99
2023-01-18T07:26:18.681Z,99.99
2023-01-18T07:27:18.677Z,99.99
2023-01-18T07:28:18.659Z,99.99
2023-01-18T07:29:18.648Z,99.99
2023-01-18T07:30:18.629Z,99.99
2023-01-18T07:31:18.653Z,99.99
2023-01-18T07:32:18.594Z,99.99
2023-01-18T07:33:18.667Z,99.99
2023-01-18T07:34:18.602Z,99.99
2023-01-18T07:35:18.612Z,99.99
2023-01-18T07:36:18.651Z,99.99
2023-01-18T07:37:18.562Z,99.99
2023-01-18T07:38:18.552Z,99.99
2023-01-18T07:39:18.556Z,99.99
2023-01-18T07:40:18.532Z,99.99
2023-01-18T07:41:18.518Z,99.99
2023-01-18T07:42:18.498Z,99.99
2023-01-18T07:43:18.511Z,99.99
2023-01-18T07:44:18.478Z,99.99
2023-01-18T07:45:18.527Z,99.99
2023-01-18T07:46:18.534Z,99.99
2023-01-18T07:47:18.461Z,99.99
2023-01-18T07:48:18.443Z,99.99
2023-01-18T07:49:18.467Z,99.99
2023-01-18T07:52:18.049Z,99.99
2023-01-18T07:52:50.151Z,99.99
2023-01-18T07:53:58.285Z,99.99
2023-01-18T07:54:50.047Z,99.99
2023-01-18T07:55:50.017Z,99.99
2023-01-18T07:56:50.008Z,99.99
2023-01-18T07:57:50.032Z,99.99
2023-01-18T07:58:50.017Z,99.99
2023-01-18T07:59:49.998Z,99.99
2023-01-18T08:00:50.032Z,99.99
2023-01-18T08:01:50.029Z,99.99
2023-01-18T08:02:50.050Z,99.99
2023-01-18T08:03:49.975Z,99.99
2023-01-18T08:04:49.957Z,99.99
2023-01-18T08:05:49.985Z,99.99
2023-01-18T08:06:49.924Z,99.99
2023-01-18T08:07:49.889Z,99.99
2023-01-18T08:08:49.900Z,99.99
2023-01-18T08:09:49.889Z,99.99
2023-01-18T08:10:49.897Z,99.99
2023-01-18T08:11:49.882Z,99.99
2023-01-18T08:12:49.851Z,99.99
2023-01-18T08:13:49.839Z,99.99
2023-01-18T08:14:49.843Z,99.99
2023-01-18T08:15:49.931Z,99.99
2023-01-18T08:16:49.809Z,99.99
2023-01-18T08:17:49.845Z,99.99
2023-01-18T08:18:49.809Z,99.99
2023-01-18T08:19:49.783Z,99.99
2023-01-18T08:20:49.788Z,99.99
2023-01-18T08:21:49.769Z,99.99
2023-01-18T08:22:49.781Z,99.99
2023-01-18T08:23:49.769Z,99.99
2023-01-18T08:24:49.749Z,99.99
2023-01-18T08:25:49.775Z,99.99
2023-01-18T08:26:49.714Z,99.99
2023-01-18T08:27:49.712Z,99.99
2023-01-18T08:28:49.696Z,99.99
2023-01-18T08:29:49.664Z,99.99
2023-01-18T08:30:49.796Z,99.99
2023-01-18T08:31:49.652Z,99.99
2023-01-18T08:32:49.671Z,99.99
2023-01-18T08:33:49.626Z,99.99
2023-01-18T08:34:49.691Z,99.99
2023-01-18T08:35:49.641Z,99.99
2023-01-18T08:36:49.612Z,99.99
2023-01-18T08:37:49.614Z,99.99
2023-01-18T08:38:49.623Z,99.99
2023-01-18T08:39:49.575Z,99.99
2023-01-18T08:40:49.586Z,99.99
2023-01-18T08:41:49.569Z,99.99
2023-01-18T08:42:49.557Z,99.99
2023-01-18T08:43:49.521Z,99.99
2023-01-18T08:44:49.538Z,99.99
2023-01-18T08:45:49.498Z,99.99
2023-01-18T08:46:49.664Z,99.99
2023-01-18T08:47:49.474Z,99.99
2023-01-18T08:48:49.498Z,99.99
2023-01-18T08:49:49.561Z,99.99
2023-01-18T08:50:51.628Z,99.99
2023-01-18T08:51:49.460Z,99.99
2023-01-18T08:52:49.579Z,99.99
2023-01-18T08:53:49.590Z,99.99
2023-01-18T08:54:49.585Z,99.99
2023-01-18T08:55:49.393Z,99.99
2023-01-18T08:56:49.421Z,99.99
2023-01-18T08:57:49.399Z,99.99
2023-01-18T08:58:49.460Z,99.99
2023-01-18T08:59:49.385Z,99.99
2023-01-18T09:00:49.392Z,99.99
2023-01-18T09:01:49.375Z,99.99
2023-01-18T09:02:49.432Z,99.99
2023-01-18T09:03:49.318Z,99.99
2023-01-18T09:04:49.349Z,99.99
2023-01-18T09:05:49.305Z,99.99
2023-01-18T09:06:50.242Z,99.99
2023-01-18T09:07:49.281Z,99.99
2023-01-18T09:08:49.271Z,99.99
2023-01-18T09:09:49.275Z,99.99
2023-01-18T09:10:49.251Z,99.99
2023-01-18T09:11:49.258Z,99.99
2023-01-18T09:12:49.241Z,99.99
2023-01-18T09:14:00.143Z,99.99
2023-01-18T09:14:50.233Z,99.99
2023-01-18T09:15:49.241Z,99.99
2023-01-18T09:16:49.222Z,99.99
2023-01-18T09:17:49.380Z,99.99
2023-01-18T09:18:49.179Z,99.99
2023-01-18T09:19:49.165Z,99.99
2023-01-18T09:26:35.490Z,99.99
2023-01-18T09:26:59.794Z,99.99
2023-01-18T09:27:59.775Z,99.99
2023-01-18T09:28:59.792Z,99.99
2023-01-18T09:29:59.819Z,99.99
2023-01-18T09:30:59.793Z,99.99
2023-01-18T09:31:59.731Z,99.99
2023-01-18T09:33:00.313Z,99.99
2023-01-18T09:34:17.452Z,99.99
2023-01-18T09:35:00.763Z,99.99
2023-01-18T09:35:59.678Z,99.99
2023-01-18T09:36:59.693Z,99.99
2023-01-18T09:37:59.866Z,99.99
2023-01-18T09:38:59.672Z,99.99
2023-01-18T09:39:59.677Z,99.99
2023-01-18T09:40:59.656Z,99.99
2023-01-18T09:41:59.617Z,99.99
2023-01-18T09:43:00.019Z,99.99
2023-01-18T09:43:59.641Z,99.99
2023-01-18T09:44:59.624Z,99.99
2023-01-18T09:45:59.587Z,99.99
2023-01-18T09:46:59.738Z,99.99
2023-01-18T09:47:59.605Z,99.99
2023-01-18T09:48:59.537Z,99.99
2023-01-18T09:49:59.531Z,99.99
2023-01-18T09:50:59.544Z,99.99
2023-01-18T09:51:59.505Z,99.99
2023-01-18T09:52:59.903Z,99.99
2023-01-18T09:53:59.483Z,99.99
2023-01-18T09:54:59.493Z,99.99
2023-01-18T09:55:59.474Z,99.99
2023-01-18T09:56:59.520Z,99.99
2023-01-18T09:57:59.498Z,99.99
2023-01-18T09:58:59.444Z,99.99
2023-01-18T09:59:59.426Z,99.99
2023-01-18T10:00:59.464Z,99.99
2023-01-18T10:01:59.586Z,99.99
2023-01-18T10:02:59.853Z,99.99
2023-01-18T10:03:59.373Z,99.99
2023-01-18T10:04:59.373Z,99.99
2023-01-18T10:05:59.353Z,99.99
2023-01-18T10:06:59.379Z,99.99
2023-01-18T10:07:59.329Z,99.99
2023-01-18T10:08:59.335Z,99.99
2023-01-18T10:09:59.319Z,99.99
2023-01-18T10:10:59.318Z,99.99
2023-01-18T10:11:59.289Z,99.99
2023-01-18T10:12:59.715Z,99.99
2023-01-18T10:13:59.278Z,99.99
2023-01-18T10:14:59.261Z,99.79
2023-01-18T10:15:59.301Z,99.58
2023-01-18T10:16:59.251Z,99.05
2023-01-18T10:17:59.212Z,98.74
2023-01-18T10:18:59.601Z,98.95
2023-01-18T10:19:59.203Z,98.85
2023-01-18T10:20:59.220Z,98.32
2023-01-18T10:21:59.180Z,98.54
2023-01-18T10:22:59.500Z,98.91
2023-01-18T10:23:59.162Z,97.96
2023-01-18T10:24:59.164Z,97.96
2023-01-18T10:25:59.149Z,98.38
2023-01-18T10:26:59.163Z,97.96
2023-01-18T10:28:00.088Z,97.55
2023-01-18T10:28:59.141Z,97.55
2023-01-18T10:29:59.102Z,97.65
2023-01-18T10:30:59.078Z,97.86
2023-01-18T10:31:59.116Z,97.23
2023-01-18T10:32:59.466Z,97.34
2023-01-18T10:33:59.243Z,97.19
2023-01-18T10:34:59.072Z,96.56
2023-01-18T10:35:59.027Z,96.56
2023-01-18T10:36:59.062Z,96.77
2023-01-18T10:37:59.377Z,96.77
2023-01-18T10:38:59.012Z,96.88
2023-01-18T10:39:59.004Z,95.83
2023-01-18T10:40:58.997Z,95.68
2023-01-18T10:41:58.981Z,96.41
2023-01-18T10:42:59.394Z,95.99
2023-01-18T10:43:58.934Z,94.53
2023-01-18T10:44:58.964Z,95.15
2023-01-18T10:45:58.975Z,95.64
2023-01-18T10:46:58.993Z,95.43
2023-01-18T10:47:58.887Z,94.80
2023-01-18T10:48:58.903Z,94.49
2023-01-18T10:49:58.960Z,94.38
2023-01-18T10:50:58.887Z,94.49
2023-01-18T10:51:58.881Z,94.80
2023-01-18T10:52:59.166Z,94.59
2023-01-18T10:53:58.845Z,93.96
2023-01-18T10:54:58.869Z,93.92
2023-01-18T10:55:58.821Z,94.02
2023-01-18T10:56:58.837Z,93.71
2023-01-18T10:57:59.076Z,92.77
2023-01-18T10:58:58.811Z,92.46
2023-01-18T10:59:58.850Z,91.83
2023-01-18T11:00:58.849Z,92.14
2023-01-18T11:01:58.940Z,91.62
2023-01-18T11:02:59.111Z,90.78
2023-01-18T11:03:58.760Z,91.37
2023-01-18T11:04:58.739Z,90.47
2023-01-18T11:05:58.747Z,90.78
2023-01-18T11:06:58.826Z,90.68
2023-01-18T11:07:58.702Z,91.58
2023-01-18T11:08:58.712Z,90.95
2023-01-18T11:09:58.683Z,91.06
2023-01-18T11:10:58.674Z,91.06
2023-01-18T11:11:58.629Z,90.12
2023-01-18T11:12:58.947Z,89.91
2023-01-18T11:13:58.631Z,90.64
2023-01-18T11:14:58.611Z,90.75
2023-01-18T11:15:58.594Z,90.01
2023-01-18T11:16:58.605Z,89.81
2023-01-18T11:17:58.600Z,90.22
2023-01-18T11:18:58.590Z,90.53
2023-01-18T11:19:59.202Z,90.12
2023-01-18T11:20:58.747Z,88.97
2023-01-18T11:21:58.569Z,89.70
2023-01-18T11:22:59.222Z,89.18
2023-01-18T11:23:58.528Z,89.39
2023-01-18T11:24:58.526Z,88.87
2023-01-18T11:25:58.496Z,88.65
2023-01-18T11:26:58.492Z,87.82
2023-01-18T11:27:58.782Z,87.71
2023-01-18T11:28:58.475Z,88.34
2023-01-18T11:29:58.453Z,88.03
2023-01-18T11:30:58.443Z,87.93
2023-01-18T11:31:58.469Z,88.09
2023-01-18T11:32:58.777Z,87.99
2023-01-18T11:33:58.428Z,87.68
2023-01-18T11:34:58.413Z,87.26
2023-01-18T11:35:58.390Z,87.15
2023-01-18T11:36:58.390Z,87.22
2023-01-18T11:37:58.694Z,86.69
2023-01-18T11:38:58.364Z,86.74
2023-01-18T11:39:58.343Z,86.59
2023-01-18T11:40:58.346Z,86.18
2023-01-18T11:41:58.337Z,85.80
2023-01-18T11:42:58.307Z,85.90
2023-01-18T11:43:58.299Z,86.32
2023-01-18T11:44:58.302Z,86.11
2023-01-18T11:45:58.405Z,86.63
2023-01-18T11:46:58.305Z,86.07
2023-01-18T11:47:58.649Z,85.86
2023-01-18T11:48:58.234Z,85.24
2023-01-18T11:49:58.275Z,85.97
2023-01-18T11:50:58.263Z,85.65
2023-01-18T11:51:58.349Z,85.97
2023-01-18T11:52:58.218Z,85.76
2023-01-18T11:53:58.189Z,85.44
2023-01-18T11:54:58.186Z,84.92
2023-01-18T11:55:58.167Z,84.30
2023-01-18T11:56:58.168Z,84.61
2023-01-18T11:57:58.591Z,84.36
2023-01-18T11:58:58.158Z,84.47
2023-01-18T11:59:58.107Z,84.57
2023-01-18T12:00:58.181Z,84.78
2023-01-18T12:01:58.198Z,84.16
2023-01-18T12:02:58.434Z,84.57
2023-01-18T12:03:58.096Z,84.26
2023-01-18T12:04:58.088Z,84.05
2023-01-18T12:05:58.075Z,84.57
2023-01-18T12:06:58.073Z,84.36
2023-01-18T12:07:58.356Z,84.99
2023-01-18T12:08:58.051Z,85.41
2023-01-18T12:09:58.026Z,84.78
2023-01-18T12:10:58.022Z,84.43
2023-01-18T12:12:09.575Z,84.01
2023-01-18T12:12:59.004Z,84.26
2023-01-18T12:13:57.974Z,84.26
2023-01-18T12:14:57.976Z,84.36
2023-01-18T12:15:57.969Z,84.67
2023-01-18T12:16:57.975Z,84.16
2023-01-18T12:18:12.144Z,84.36
2023-01-18T12:18:58.920Z,84.57
2023-01-18T12:19:57.913Z,83.95
2023-01-18T12:20:57.905Z,83.95
2023-01-18T12:21:57.905Z,84.36
2023-01-18T12:22:57.916Z,84.05
2023-01-18T12:23:57.871Z,84.05
2023-01-18T12:24:57.878Z,83.32
2023-01-18T12:26:11.355Z,83.74
2023-01-18T12:26:58.828Z,83.95
2023-01-18T12:27:58.248Z,84.26
2023-01-18T12:28:57.818Z,84.12
2023-01-18T12:29:57.875Z,84.01
2023-01-18T12:30:57.893Z,83.53
2023-01-18T12:31:57.797Z,83.74
2023-01-18T12:32:58.203Z,83.53
2023-01-18T12:33:57.769Z,84.33
2023-01-18T12:34:57.770Z,83.91
2023-01-18T12:35:57.753Z,83.18
2023-01-18T12:36:57.738Z,83.28
2023-01-18T12:37:57.964Z,83.28
2023-01-18T12:38:57.709Z,82.72
2023-01-18T12:39:57.707Z,82.41
2023-01-18T12:40:57.698Z,82.10
2023-01-18T12:41:57.656Z,81.85
2023-01-18T12:42:57.692Z,81.75
2023-01-18T12:43:57.717Z,82.03
2023-01-18T12:44:57.640Z,80.71
2023-01-18T12:45:57.710Z,80.71
2023-01-18T12:46:57.613Z,80.81
2023-01-18T12:47:57.912Z,81.02
2023-01-18T12:48:57.620Z,81.05
2023-01-18T12:49:57.637Z,81.58
2023-01-18T12:50:57.593Z,81.43
2023-01-18T12:52:13.007Z,81.43
2023-01-18T12:52:58.639Z,80.71
2023-01-18T12:53:57.572Z,80.81
2023-01-18T12:54:57.537Z,80.67
2023-01-18T12:55:57.538Z,80.67
2023-01-18T12:56:57.543Z,79.94
2023-01-18T12:57:57.640Z,79.80
2023-01-18T12:58:57.513Z,79.66